sensor_id;sensor_type;location;lat;lon;timestamp;P1;durP1;ratioP1;P2;durP2;ratioP2
14923;SDS011;7554;43.600;1.480;2022-09-23T00:02:15;4.97;;;2.23;;
14923;SDS011;7554;43.600;1.480;2022-09-23T00:04:43;8.80;;;2.07;;
14923;SDS011;7554;43.600;1.480;2022-09-23T00:07:11;5.23;;;1.90;;
14923;SDS011;7554;43.600;1.480;2022-09-23T00:09:38;7.00;;;2.03;;
14923;SDS011;7554;43.600;1.480;2022-09-23T00:12:07;5.63;;;1.97;;
14923;SDS011;7554;43.600;1.480;2022-09-23T00:14:35;9.90;;;2.33;;
14923;SDS011;7554;43.600;1.480;2022-09-23T00:17:04;5.37;;;2.13;;
14923;SDS011;7554;43.600;1.480;2022-09-23T00:19:31;8.20;;;2.47;;
14923;SDS011;7554;43.600;1.480;2022-09-23T00:21:58;6.30;;;2.03;;
14923;SDS011;7554;43.600;1.480;2022-09-23T00:24:25;7.30;;;1.90;;
14923;SDS011;7554;43.600;1.480;2022-09-23T00:26:56;9.93;;;2.20;;
14923;SDS011;7554;43.600;1.480;2022-09-23T00:29:25;7.10;;;1.80;;
14923;SDS011;7554;43.600;1.480;2022-09-23T00:31:52;8.50;;;2.33;;
14923;SDS011;7554;43.600;1.480;2022-09-23T00:34:20;5.97;;;2.00;;
14923;SDS011;7554;43.600;1.480;2022-09-23T00:36:47;7.13;;;2.10;;
14923;SDS011;7554;43.600;1.480;2022-09-23T00:39:14;8.30;;;2.13;;
14923;SDS011;7554;43.600;1.480;2022-09-23T00:41:42;6.90;;;2.20;;
14923;SDS011;7554;43.600;1.480;2022-09-23T00:47:16;5.67;;;2.20;;
14923;SDS011;7554;43.600;1.480;2022-09-23T00:49:47;6.67;;;1.80;;
14923;SDS011;7554;43.600;1.480;2022-09-23T00:52:18;3.53;;;1.80;;
14923;SDS011;7554;43.600;1.480;2022-09-23T00:54:49;7.77;;;2.17;;
14923;SDS011;7554;43.600;1.480;2022-09-23T00:57:19;5.87;;;1.80;;
14923;SDS011;7554;43.600;1.480;2022-09-23T00:59:48;5.33;;;2.07;;
14923;SDS011;7554;43.600;1.480;2022-09-23T01:02:17;5.37;;;2.00;;
14923;SDS011;7554;43.600;1.480;2022-09-23T01:04:46;6.13;;;2.30;;
14923;SDS011;7554;43.600;1.480;2022-09-23T01:07:15;7.60;;;1.90;;
14923;SDS011;7554;43.600;1.480;2022-09-23T01:09:42;8.53;;;2.03;;
14923;SDS011;7554;43.600;1.480;2022-09-23T01:12:15;7.70;;;2.03;;
14923;SDS011;7554;43.600;1.480;2022-09-23T01:14:54;9.93;;;2.47;;
14923;SDS011;7554;43.600;1.480;2022-09-23T01:17:30;9.17;;;1.93;;
14923;SDS011;7554;43.600;1.480;2022-09-23T01:20:21;5.57;;;1.77;;
14923;SDS011;7554;43.600;1.480;2022-09-23T01:23:10;6.63;;;1.70;;
14923;SDS011;7554;43.600;1.480;2022-09-23T01:25:51;8.63;;;2.20;;
14923;SDS011;7554;43.600;1.480;2022-09-23T01:28:46;10.67;;;2.43;;
14923;SDS011;7554;43.600;1.480;2022-09-23T01:31:30;4.73;;;1.90;;
14923;SDS011;7554;43.600;1.480;2022-09-23T01:34:06;6.47;;;2.00;;
14923;SDS011;7554;43.600;1.480;2022-09-23T01:36:40;6.87;;;1.90;;
14923;SDS011;7554;43.600;1.480;2022-09-23T01:39:13;6.73;;;2.30;;
14923;SDS011;7554;43.600;1.480;2022-09-23T01:41:48;8.47;;;1.80;;
14923;SDS011;7554;43.600;1.480;2022-09-23T01:44:23;9.53;;;2.23;;
14923;SDS011;7554;43.600;1.480;2022-09-23T01:46:59;13.73;;;2.33;;
14923;SDS011;7554;43.600;1.480;2022-09-23T01:49:37;9.40;;;2.43;;
14923;SDS011;7554;43.600;1.480;2022-09-23T01:52:10;5.77;;;2.03;;
14923;SDS011;7554;43.600;1.480;2022-09-23T01:54:43;8.57;;;2.40;;
14923;SDS011;7554;43.600;1.480;2022-09-23T01:57:17;8.23;;;2.30;;
14923;SDS011;7554;43.600;1.480;2022-09-23T01:59:49;5.73;;;1.97;;
14923;SDS011;7554;43.600;1.480;2022-09-23T02:02:22;11.07;;;2.43;;
14923;SDS011;7554;43.600;1.480;2022-09-23T02:04:54;8.43;;;2.30;;
14923;SDS011;7554;43.600;1.480;2022-09-23T02:07:28;10.83;;;2.57;;
14923;SDS011;7554;43.600;1.480;2022-09-23T02:10:02;8.37;;;1.93;;
14923;SDS011;7554;43.600;1.480;2022-09-23T02:12:36;7.93;;;2.00;;
14923;SDS011;7554;43.600;1.480;2022-09-23T02:15:07;8.87;;;2.33;;
14923;SDS011;7554;43.600;1.480;2022-09-23T02:17:41;12.47;;;2.30;;
14923;SDS011;7554;43.600;1.480;2022-09-23T02:20:14;8.10;;;2.27;;
14923;SDS011;7554;43.600;1.480;2022-09-23T02:22:48;10.93;;;2.43;;
14923;SDS011;7554;43.600;1.480;2022-09-23T02:25:20;5.93;;;1.90;;
14923;SDS011;7554;43.600;1.480;2022-09-23T02:27:53;8.07;;;2.30;;
14923;SDS011;7554;43.600;1.480;2022-09-23T02:30:24;15.03;;;2.70;;
14923;SDS011;7554;43.600;1.480;2022-09-23T02:32:57;6.30;;;2.50;;
14923;SDS011;7554;43.600;1.480;2022-09-23T02:35:30;8.30;;;1.90;;
14923;SDS011;7554;43.600;1.480;2022-09-23T02:38:03;7.00;;;2.03;;
14923;SDS011;7554;43.600;1.480;2022-09-23T02:40:45;7.87;;;2.20;;
14923;SDS011;7554;43.600;1.480;2022-09-23T02:43:19;8.13;;;2.30;;
14923;SDS011;7554;43.600;1.480;2022-09-23T02:45:52;6.93;;;2.00;;
14923;SDS011;7554;43.600;1.480;2022-09-23T02:48:22;6.50;;;1.93;;
14923;SDS011;7554;43.600;1.480;2022-09-23T02:50:53;5.43;;;2.40;;
14923;SDS011;7554;43.600;1.480;2022-09-23T02:53:21;7.97;;;2.10;;
14923;SDS011;7554;43.600;1.480;2022-09-23T02:55:49;6.80;;;2.57;;
14923;SDS011;7554;43.600;1.480;2022-09-23T02:58:17;13.73;;;2.30;;
14923;SDS011;7554;43.600;1.480;2022-09-23T03:00:47;5.97;;;2.27;;
14923;SDS011;7554;43.600;1.480;2022-09-23T03:03:28;12.73;;;2.50;;
14923;SDS011;7554;43.600;1.480;2022-09-23T03:06:07;10.90;;;2.50;;
14923;SDS011;7554;43.600;1.480;2022-09-23T03:08:42;10.53;;;2.57;;
14923;SDS011;7554;43.600;1.480;2022-09-23T03:11:14;5.93;;;2.30;;
14923;SDS011;7554;43.600;1.480;2022-09-23T03:13:49;5.97;;;2.37;;
14923;SDS011;7554;43.600;1.480;2022-09-23T03:16:30;7.93;;;2.70;;
14923;SDS011;7554;43.600;1.480;2022-09-23T03:19:06;13.20;;;2.47;;
14923;SDS011;7554;43.600;1.480;2022-09-23T03:21:44;7.13;;;2.47;;
14923;SDS011;7554;43.600;1.480;2022-09-23T03:24:14;10.47;;;2.87;;
14923;SDS011;7554;43.600;1.480;2022-09-23T03:26:45;6.33;;;2.33;;
14923;SDS011;7554;43.600;1.480;2022-09-23T03:29:14;8.97;;;3.20;;
14923;SDS011;7554;43.600;1.480;2022-09-23T03:31:44;6.73;;;2.93;;
14923;SDS011;7554;43.600;1.480;2022-09-23T03:34:14;6.10;;;2.47;;
14923;SDS011;7554;43.600;1.480;2022-09-23T03:36:48;4.33;;;2.10;;
14923;SDS011;7554;43.600;1.480;2022-09-23T03:39:27;5.73;;;2.60;;
14923;SDS011;7554;43.600;1.480;2022-09-23T03:42:01;7.23;;;2.50;;
14923;SDS011;7554;43.600;1.480;2022-09-23T03:44:32;5.67;;;2.70;;
14923;SDS011;7554;43.600;1.480;2022-09-23T03:47:04;7.77;;;2.70;;
14923;SDS011;7554;43.600;1.480;2022-09-23T03:49:33;6.37;;;2.70;;
14923;SDS011;7554;43.600;1.480;2022-09-23T03:52:03;7.17;;;2.57;;
14923;SDS011;7554;43.600;1.480;2022-09-23T03:54:31;6.13;;;3.00;;
14923;SDS011;7554;43.600;1.480;2022-09-23T03:56:59;9.10;;;2.90;;
14923;SDS011;7554;43.600;1.480;2022-09-23T03:59:27;6.57;;;2.73;;
14923;SDS011;7554;43.600;1.480;2022-09-23T04:01:55;7.07;;;2.63;;
14923;SDS011;7554;43.600;1.480;2022-09-23T04:04:24;6.13;;;3.00;;
14923;SDS011;7554;43.600;1.480;2022-09-23T04:06:54;12.33;;;3.13;;
14923;SDS011;7554;43.600;1.480;2022-09-23T04:09:21;8.77;;;2.87;;
14923;SDS011;7554;43.600;1.480;2022-09-23T04:11:49;5.93;;;2.40;;
14923;SDS011;7554;43.600;1.480;2022-09-23T04:14:17;6.77;;;2.60;;
14923;SDS011;7554;43.600;1.480;2022-09-23T04:16:45;6.33;;;2.67;;
14923;SDS011;7554;43.600;1.480;2022-09-23T04:19:14;6.70;;;2.60;;
14923;SDS011;7554;43.600;1.480;2022-09-23T04:21:42;4.60;;;2.73;;
14923;SDS011;7554;43.600;1.480;2022-09-23T04:24:11;8.93;;;3.20;;
14923;SDS011;7554;43.600;1.480;2022-09-23T04:26:39;11.67;;;3.00;;
14923;SDS011;7554;43.600;1.480;2022-09-23T04:29:07;4.93;;;2.43;;
14923;SDS011;7554;43.600;1.480;2022-09-23T04:31:36;6.33;;;2.73;;
14923;SDS011;7554;43.600;1.480;2022-09-23T04:34:04;6.30;;;3.10;;
14923;SDS011;7554;43.600;1.480;2022-09-23T04:36:32;9.53;;;2.73;;
14923;SDS011;7554;43.600;1.480;2022-09-23T04:38:59;9.73;;;2.83;;
14923;SDS011;7554;43.600;1.480;2022-09-23T04:41:28;5.40;;;2.80;;
14923;SDS011;7554;43.600;1.480;2022-09-23T04:43:56;7.17;;;3.23;;
14923;SDS011;7554;43.600;1.480;2022-09-23T04:46:23;8.07;;;3.13;;
14923;SDS011;7554;43.600;1.480;2022-09-23T04:48:51;6.63;;;2.80;;
14923;SDS011;7554;43.600;1.480;2022-09-23T04:51:19;7.90;;;2.97;;
14923;SDS011;7554;43.600;1.480;2022-09-23T04:53:48;10.30;;;3.90;;
14923;SDS011;7554;43.600;1.480;2022-09-23T04:56:17;6.13;;;3.40;;
14923;SDS011;7554;43.600;1.480;2022-09-23T04:58:47;6.93;;;3.10;;
14923;SDS011;7554;43.600;1.480;2022-09-23T05:01:16;6.77;;;3.20;;
14923;SDS011;7554;43.600;1.480;2022-09-23T05:03:48;10.33;;;3.93;;
14923;SDS011;7554;43.600;1.480;2022-09-23T05:06:18;8.40;;;3.90;;
14923;SDS011;7554;43.600;1.480;2022-09-23T05:08:46;6.90;;;3.10;;
14923;SDS011;7554;43.600;1.480;2022-09-23T05:11:14;7.37;;;3.00;;
14923;SDS011;7554;43.600;1.480;2022-09-23T05:13:42;4.93;;;3.13;;
14923;SDS011;7554;43.600;1.480;2022-09-23T05:16:12;7.63;;;3.20;;
14923;SDS011;7554;43.600;1.480;2022-09-23T05:18:40;8.37;;;3.33;;
14923;SDS011;7554;43.600;1.480;2022-09-23T05:21:08;8.17;;;3.03;;
14923;SDS011;7554;43.600;1.480;2022-09-23T05:23:37;7.10;;;3.47;;
14923;SDS011;7554;43.600;1.480;2022-09-23T05:26:05;12.73;;;3.03;;
14923;SDS011;7554;43.600;1.480;2022-09-23T05:28:34;10.63;;;3.10;;
14923;SDS011;7554;43.600;1.480;2022-09-23T05:31:03;8.00;;;3.13;;
14923;SDS011;7554;43.600;1.480;2022-09-23T05:33:34;6.27;;;3.53;;
14923;SDS011;7554;43.600;1.480;2022-09-23T05:36:03;9.60;;;3.13;;
14923;SDS011;7554;43.600;1.480;2022-09-23T05:38:31;8.80;;;4.10;;
14923;SDS011;7554;43.600;1.480;2022-09-23T05:41:00;9.53;;;3.60;;
14923;SDS011;7554;43.600;1.480;2022-09-23T05:43:29;9.93;;;3.73;;
14923;SDS011;7554;43.600;1.480;2022-09-23T05:46:03;7.80;;;2.90;;
14923;SDS011;7554;43.600;1.480;2022-09-23T05:48:32;7.93;;;2.87;;
14923;SDS011;7554;43.600;1.480;2022-09-23T05:51:02;10.53;;;3.20;;
14923;SDS011;7554;43.600;1.480;2022-09-23T05:53:33;8.70;;;2.87;;
14923;SDS011;7554;43.600;1.480;2022-09-23T05:56:01;9.83;;;3.20;;
14923;SDS011;7554;43.600;1.480;2022-09-23T05:58:29;6.87;;;3.23;;
14923;SDS011;7554;43.600;1.480;2022-09-23T06:00:56;8.93;;;2.90;;
14923;SDS011;7554;43.600;1.480;2022-09-23T06:03:24;8.27;;;2.47;;
14923;SDS011;7554;43.600;1.480;2022-09-23T06:05:53;11.73;;;2.77;;
14923;SDS011;7554;43.600;1.480;2022-09-23T06:08:21;5.83;;;2.27;;
14923;SDS011;7554;43.600;1.480;2022-09-23T06:10:48;9.30;;;2.90;;
14923;SDS011;7554;43.600;1.480;2022-09-23T06:13:16;13.60;;;2.80;;
14923;SDS011;7554;43.600;1.480;2022-09-23T06:15:43;14.33;;;2.80;;
14923;SDS011;7554;43.600;1.480;2022-09-23T06:18:11;20.43;;;3.37;;
14923;SDS011;7554;43.600;1.480;2022-09-23T06:20:38;18.43;;;3.37;;
14923;SDS011;7554;43.600;1.480;2022-09-23T06:23:08;12.60;;;2.73;;
14923;SDS011;7554;43.600;1.480;2022-09-23T06:25:36;8.90;;;2.70;;
14923;SDS011;7554;43.600;1.480;2022-09-23T06:28:04;11.67;;;2.43;;
14923;SDS011;7554;43.600;1.480;2022-09-23T06:30:36;8.80;;;2.20;;
14923;SDS011;7554;43.600;1.480;2022-09-23T06:33:04;7.13;;;2.20;;
14923;SDS011;7554;43.600;1.480;2022-09-23T06:35:32;7.60;;;2.17;;
14923;SDS011;7554;43.600;1.480;2022-09-23T06:38:01;12.37;;;2.57;;
14923;SDS011;7554;43.600;1.480;2022-09-23T06:40:30;13.00;;;2.83;;
14923;SDS011;7554;43.600;1.480;2022-09-23T06:42:58;8.10;;;2.25;;
14923;SDS011;7554;43.600;1.480;2022-09-23T06:45:27;9.13;;;2.80;;
14923;SDS011;7554;43.600;1.480;2022-09-23T06:47:55;12.90;;;2.37;;
14923;SDS011;7554;43.600;1.480;2022-09-23T06:50:23;10.77;;;2.87;;
14923;SDS011;7554;43.600;1.480;2022-09-23T06:52:52;8.57;;;2.40;;
14923;SDS011;7554;43.600;1.480;2022-09-23T06:55:20;4.70;;;2.23;;
14923;SDS011;7554;43.600;1.480;2022-09-23T06:57:53;6.40;;;2.20;;
14923;SDS011;7554;43.600;1.480;2022-09-23T07:00:20;10.50;;;2.40;;
14923;SDS011;7554;43.600;1.480;2022-09-23T07:02:48;9.07;;;2.20;;
14923;SDS011;7554;43.600;1.480;2022-09-23T07:05:15;6.80;;;2.70;;
14923;SDS011;7554;43.600;1.480;2022-09-23T07:07:43;11.17;;;2.60;;
14923;SDS011;7554;43.600;1.480;2022-09-23T07:10:10;9.37;;;2.60;;
14923;SDS011;7554;43.600;1.480;2022-09-23T07:12:39;13.43;;;2.60;;
14923;SDS011;7554;43.600;1.480;2022-09-23T07:15:08;8.43;;;2.50;;
14923;SDS011;7554;43.600;1.480;2022-09-23T07:17:39;7.20;;;3.03;;
14923;SDS011;7554;43.600;1.480;2022-09-23T07:20:07;9.17;;;2.80;;
14923;SDS011;7554;43.600;1.480;2022-09-23T07:22:36;7.60;;;2.90;;
14923;SDS011;7554;43.600;1.480;2022-09-23T07:25:04;8.07;;;3.00;;
14923;SDS011;7554;43.600;1.480;2022-09-23T07:27:31;9.90;;;2.80;;
14923;SDS011;7554;43.600;1.480;2022-09-23T07:29:59;9.73;;;2.67;;
14923;SDS011;7554;43.600;1.480;2022-09-23T07:32:27;7.77;;;2.33;;
14923;SDS011;7554;43.600;1.480;2022-09-23T07:34:55;5.70;;;2.13;;
14923;SDS011;7554;43.600;1.480;2022-09-23T07:37:23;6.47;;;2.43;;
14923;SDS011;7554;43.600;1.480;2022-09-23T07:39:50;8.13;;;2.10;;
14923;SDS011;7554;43.600;1.480;2022-09-23T07:42:17;12.17;;;1.83;;
14923;SDS011;7554;43.600;1.480;2022-09-23T07:44:44;9.03;;;2.07;;
14923;SDS011;7554;43.600;1.480;2022-09-23T07:47:12;9.03;;;2.03;;
14923;SDS011;7554;43.600;1.480;2022-09-23T07:49:41;10.20;;;1.87;;
14923;SDS011;7554;43.600;1.480;2022-09-23T07:52:08;5.57;;;1.77;;
14923;SDS011;7554;43.600;1.480;2022-09-23T07:54:36;6.47;;;1.80;;
14923;SDS011;7554;43.600;1.480;2022-09-23T07:57:03;9.53;;;2.23;;
14923;SDS011;7554;43.600;1.480;2022-09-23T07:59:30;7.83;;;2.00;;
14923;SDS011;7554;43.600;1.480;2022-09-23T08:01:58;5.30;;;1.70;;
14923;SDS011;7554;43.600;1.480;2022-09-23T08:04:27;5.40;;;1.70;;
14923;SDS011;7554;43.600;1.480;2022-09-23T08:06:57;5.93;;;1.47;;
14923;SDS011;7554;43.600;1.480;2022-09-23T08:09:26;6.27;;;1.60;;
14923;SDS011;7554;43.600;1.480;2022-09-23T08:11:56;6.30;;;1.60;;
14923;SDS011;7554;43.600;1.480;2022-09-23T08:14:23;6.87;;;1.90;;
14923;SDS011;7554;43.600;1.480;2022-09-23T08:16:51;7.43;;;1.70;;
14923;SDS011;7554;43.600;1.480;2022-09-23T08:19:19;3.67;;;1.40;;
14923;SDS011;7554;43.600;1.480;2022-09-23T08:21:46;12.67;;;2.10;;
14923;SDS011;7554;43.600;1.480;2022-09-23T08:24:16;5.63;;;1.60;;
14923;SDS011;7554;43.600;1.480;2022-09-23T08:26:46;5.17;;;2.00;;
14923;SDS011;7554;43.600;1.480;2022-09-23T08:29:15;8.63;;;1.40;;
14923;SDS011;7554;43.600;1.480;2022-09-23T08:31:43;5.13;;;1.13;;
14923;SDS011;7554;43.600;1.480;2022-09-23T08:34:11;3.10;;;1.20;;
14923;SDS011;7554;43.600;1.480;2022-09-23T08:36:39;5.40;;;1.97;;
14923;SDS011;7554;43.600;1.480;2022-09-23T08:39:06;9.90;;;1.70;;
14923;SDS011;7554;43.600;1.480;2022-09-23T08:41:38;5.57;;;1.73;;
14923;SDS011;7554;43.600;1.480;2022-09-23T08:44:12;6.20;;;1.53;;
14923;SDS011;7554;43.600;1.480;2022-09-23T08:46:44;4.70;;;1.43;;
14923;SDS011;7554;43.600;1.480;2022-09-23T08:49:20;4.60;;;1.50;;
14923;SDS011;7554;43.600;1.480;2022-09-23T08:51:52;4.90;;;1.33;;
14923;SDS011;7554;43.600;1.480;2022-09-23T08:54:21;10.07;;;1.67;;
14923;SDS011;7554;43.600;1.480;2022-09-23T08:56:53;8.27;;;1.80;;
14923;SDS011;7554;43.600;1.480;2022-09-23T08:59:24;6.57;;;1.47;;
14923;SDS011;7554;43.600;1.480;2022-09-23T09:02:01;4.07;;;1.13;;
14923;SDS011;7554;43.600;1.480;2022-09-23T09:04:37;7.37;;;1.57;;
14923;SDS011;7554;43.600;1.480;2022-09-23T09:07:09;7.00;;;1.70;;
14923;SDS011;7554;43.600;1.480;2022-09-23T09:09:40;4.60;;;1.33;;
14923;SDS011;7554;43.600;1.480;2022-09-23T09:12:14;6.93;;;1.47;;
14923;SDS011;7554;43.600;1.480;2022-09-23T09:14:46;5.27;;;1.70;;
14923;SDS011;7554;43.600;1.480;2022-09-23T09:17:22;7.07;;;1.43;;
14923;SDS011;7554;43.600;1.480;2022-09-23T09:20:00;8.37;;;1.87;;
14923;SDS011;7554;43.600;1.480;2022-09-23T09:22:42;8.90;;;1.53;;
14923;SDS011;7554;43.600;1.480;2022-09-23T09:25:22;5.27;;;1.50;;
14923;SDS011;7554;43.600;1.480;2022-09-23T09:28:03;10.60;;;1.70;;
14923;SDS011;7554;43.600;1.480;2022-09-23T09:30:43;6.77;;;1.83;;
14923;SDS011;7554;43.600;1.480;2022-09-23T09:33:14;6.47;;;1.53;;
14923;SDS011;7554;43.600;1.480;2022-09-23T09:35:52;10.57;;;1.93;;
14923;SDS011;7554;43.600;1.480;2022-09-23T09:38:26;5.43;;;1.87;;
14923;SDS011;7554;43.600;1.480;2022-09-23T09:40:54;7.93;;;2.00;;
14923;SDS011;7554;43.600;1.480;2022-09-23T09:43:29;5.17;;;1.27;;
14923;SDS011;7554;43.600;1.480;2022-09-23T09:45:59;4.87;;;1.57;;
14923;SDS011;7554;43.600;1.480;2022-09-23T09:48:35;6.50;;;1.47;;
14923;SDS011;7554;43.600;1.480;2022-09-23T09:51:17;3.33;;;1.20;;
14923;SDS011;7554;43.600;1.480;2022-09-23T09:53:46;6.10;;;1.60;;
14923;SDS011;7554;43.600;1.480;2022-09-23T09:56:16;8.57;;;1.50;;
14923;SDS011;7554;43.600;1.480;2022-09-23T09:58:49;6.50;;;1.43;;
14923;SDS011;7554;43.600;1.480;2022-09-23T10:01:20;7.67;;;1.93;;
14923;SDS011;7554;43.600;1.480;2022-09-23T10:03:49;7.10;;;1.77;;
14923;SDS011;7554;43.600;1.480;2022-09-23T10:06:19;8.60;;;2.17;;
14923;SDS011;7554;43.600;1.480;2022-09-23T10:11:35;4.77;;;1.50;;
14923;SDS011;7554;43.600;1.480;2022-09-23T10:14:09;5.97;;;1.60;;
14923;SDS011;7554;43.600;1.480;2022-09-23T10:16:38;5.20;;;1.60;;
14923;SDS011;7554;43.600;1.480;2022-09-23T10:19:13;7.00;;;1.87;;
14923;SDS011;7554;43.600;1.480;2022-09-23T10:21:49;9.00;;;1.60;;
14923;SDS011;7554;43.600;1.480;2022-09-23T10:24:24;5.47;;;1.70;;
14923;SDS011;7554;43.600;1.480;2022-09-23T10:26:57;3.83;;;1.60;;
14923;SDS011;7554;43.600;1.480;2022-09-23T10:29:31;8.60;;;1.70;;
14923;SDS011;7554;43.600;1.480;2022-09-23T10:32:12;6.07;;;1.77;;
14923;SDS011;7554;43.600;1.480;2022-09-23T10:34:48;9.03;;;2.00;;
14923;SDS011;7554;43.600;1.480;2022-09-23T10:37:20;5.83;;;1.77;;
14923;SDS011;7554;43.600;1.480;2022-09-23T10:39:55;7.03;;;1.40;;
14923;SDS011;7554;43.600;1.480;2022-09-23T10:42:45;6.30;;;1.33;;
14923;SDS011;7554;43.600;1.480;2022-09-23T10:45:41;8.07;;;1.63;;
14923;SDS011;7554;43.600;1.480;2022-09-23T10:48:33;4.33;;;1.30;;
14923;SDS011;7554;43.600;1.480;2022-09-23T10:51:12;6.53;;;1.80;;
14923;SDS011;7554;43.600;1.480;2022-09-23T10:53:46;5.07;;;1.40;;
14923;SDS011;7554;43.600;1.480;2022-09-23T10:56:24;7.30;;;1.50;;
14923;SDS011;7554;43.600;1.480;2022-09-23T10:59:02;4.60;;;1.50;;
14923;SDS011;7554;43.600;1.480;2022-09-23T11:02:01;5.87;;;1.50;;
14923;SDS011;7554;43.600;1.480;2022-09-23T11:04:42;6.13;;;1.60;;
14923;SDS011;7554;43.600;1.480;2022-09-23T11:07:33;5.90;;;1.90;;
14923;SDS011;7554;43.600;1.480;2022-09-23T11:13:06;4.53;;;1.20;;
14923;SDS011;7554;43.600;1.480;2022-09-23T11:15:45;7.97;;;1.93;;
14923;SDS011;7554;43.600;1.480;2022-09-23T11:18:29;6.53;;;1.50;;
14923;SDS011;7554;43.600;1.480;2022-09-23T11:21:25;4.30;;;1.37;;
14923;SDS011;7554;43.600;1.480;2022-09-23T11:24:16;8.20;;;1.83;;
14923;SDS011;7554;43.600;1.480;2022-09-23T11:27:02;4.53;;;1.47;;
14923;SDS011;7554;43.600;1.480;2022-09-23T11:29:46;5.67;;;1.63;;
14923;SDS011;7554;43.600;1.480;2022-09-23T11:32:35;5.50;;;1.40;;
14923;SDS011;7554;43.600;1.480;2022-09-23T11:35:28;11.23;;;1.80;;
14923;SDS011;7554;43.600;1.480;2022-09-23T11:38:01;9.10;;;1.37;;
14923;SDS011;7554;43.600;1.480;2022-09-23T11:40:33;11.63;;;1.77;;
14923;SDS011;7554;43.600;1.480;2022-09-23T11:43:05;8.53;;;1.87;;
14923;SDS011;7554;43.600;1.480;2022-09-23T11:45:43;5.33;;;1.60;;
14923;SDS011;7554;43.600;1.480;2022-09-23T11:48:15;5.03;;;1.40;;
14923;SDS011;7554;43.600;1.480;2022-09-23T11:50:49;4.47;;;1.53;;
14923;SDS011;7554;43.600;1.480;2022-09-23T11:53:25;6.03;;;1.60;;
14923;SDS011;7554;43.600;1.480;2022-09-23T11:56:03;7.90;;;1.70;;
14923;SDS011;7554;43.600;1.480;2022-09-23T11:58:36;6.27;;;1.60;;
14923;SDS011;7554;43.600;1.480;2022-09-23T12:01:11;8.37;;;1.70;;
14923;SDS011;7554;43.600;1.480;2022-09-23T12:03:47;4.63;;;1.40;;
14923;SDS011;7554;43.600;1.480;2022-09-23T12:06:22;4.10;;;1.40;;
14923;SDS011;7554;43.600;1.480;2022-09-23T12:08:57;3.97;;;1.23;;
14923;SDS011;7554;43.600;1.480;2022-09-23T12:11:30;10.33;;;1.90;;
14923;SDS011;7554;43.600;1.480;2022-09-23T12:14:08;4.57;;;1.33;;
14923;SDS011;7554;43.600;1.480;2022-09-23T12:16:54;6.93;;;1.70;;
14923;SDS011;7554;43.600;1.480;2022-09-23T12:19:39;8.23;;;2.27;;
14923;SDS011;7554;43.600;1.480;2022-09-23T12:22:29;5.77;;;1.50;;
14923;SDS011;7554;43.600;1.480;2022-09-23T12:25:15;4.83;;;1.60;;
14923;SDS011;7554;43.600;1.480;2022-09-23T12:28:01;7.60;;;1.70;;
14923;SDS011;7554;43.600;1.480;2022-09-23T12:30:32;9.40;;;1.60;;
14923;SDS011;7554;43.600;1.480;2022-09-23T12:33:08;3.23;;;1.70;;
14923;SDS011;7554;43.600;1.480;2022-09-23T12:35:46;4.17;;;1.47;;
14923;SDS011;7554;43.600;1.480;2022-09-23T12:38:17;3.93;;;1.47;;
14923;SDS011;7554;43.600;1.480;2022-09-23T12:40:46;4.73;;;1.73;;
14923;SDS011;7554;43.600;1.480;2022-09-23T12:43:17;8.50;;;1.80;;
14923;SDS011;7554;43.600;1.480;2022-09-23T12:45:53;10.23;;;1.80;;
14923;SDS011;7554;43.600;1.480;2022-09-23T12:51:24;5.73;;;1.50;;
14923;SDS011;7554;43.600;1.480;2022-09-23T12:56:59;7.53;;;1.60;;
14923;SDS011;7554;43.600;1.480;2022-09-23T12:59:30;7.70;;;1.50;;
14923;SDS011;7554;43.600;1.480;2022-09-23T13:02:23;7.67;;;1.70;;
14923;SDS011;7554;43.600;1.480;2022-09-23T13:04:56;5.47;;;1.67;;
14923;SDS011;7554;43.600;1.480;2022-09-23T13:07:47;4.00;;;1.40;;
14923;SDS011;7554;43.600;1.480;2022-09-23T13:10:20;8.50;;;1.47;;
14923;SDS011;7554;43.600;1.480;2022-09-23T13:12:57;5.67;;;1.67;;
14923;SDS011;7554;43.600;1.480;2022-09-23T13:15:27;3.00;;;1.50;;
14923;SDS011;7554;43.600;1.480;2022-09-23T13:24:34;2.97;;;1.30;;
14923;SDS011;7554;43.600;1.480;2022-09-23T13:27:17;5.13;;;1.70;;
14923;SDS011;7554;43.600;1.480;2022-09-23T13:29:57;5.17;;;1.87;;
14923;SDS011;7554;43.600;1.480;2022-09-23T13:32:29;3.57;;;1.57;;
14923;SDS011;7554;43.600;1.480;2022-09-23T13:34:59;3.00;;;1.20;;
14923;SDS011;7554;43.600;1.480;2022-09-23T13:37:30;7.00;;;1.80;;
14923;SDS011;7554;43.600;1.480;2022-09-23T13:40:15;4.40;;;1.60;;
14923;SDS011;7554;43.600;1.480;2022-09-23T13:42:47;5.40;;;1.50;;
14923;SDS011;7554;43.600;1.480;2022-09-23T13:45:20;4.27;;;1.30;;
14923;SDS011;7554;43.600;1.480;2022-09-23T13:47:50;2.57;;;1.10;;
14923;SDS011;7554;43.600;1.480;2022-09-23T13:50:20;4.37;;;1.30;;
14923;SDS011;7554;43.600;1.480;2022-09-23T13:52:52;3.97;;;1.60;;
14923;SDS011;7554;43.600;1.480;2022-09-23T13:55:28;2.77;;;1.70;;
14923;SDS011;7554;43.600;1.480;2022-09-23T13:58:02;7.03;;;1.50;;
14923;SDS011;7554;43.600;1.480;2022-09-23T14:00:32;5.50;;;1.47;;
14923;SDS011;7554;43.600;1.480;2022-09-23T14:03:01;5.30;;;1.40;;
14923;SDS011;7554;43.600;1.480;2022-09-23T14:05:41;8.47;;;1.80;;
14923;SDS011;7554;43.600;1.480;2022-09-23T14:08:09;3.50;;;1.60;;
14923;SDS011;7554;43.600;1.480;2022-09-23T14:10:38;10.03;;;1.60;;
14923;SDS011;7554;43.600;1.480;2022-09-23T14:13:13;9.37;;;1.70;;
14923;SDS011;7554;43.600;1.480;2022-09-23T14:15:42;5.70;;;1.40;;
14923;SDS011;7554;43.600;1.480;2022-09-23T14:18:13;3.57;;;1.40;;
14923;SDS011;7554;43.600;1.480;2022-09-23T14:20:44;6.20;;;1.63;;
14923;SDS011;7554;43.600;1.480;2022-09-23T14:23:14;5.40;;;1.70;;
14923;SDS011;7554;43.600;1.480;2022-09-23T14:25:43;3.90;;;1.43;;
14923;SDS011;7554;43.600;1.480;2022-09-23T14:28:13;7.37;;;1.50;;
14923;SDS011;7554;43.600;1.480;2022-09-23T14:30:43;6.97;;;1.37;;
14923;SDS011;7554;43.600;1.480;2022-09-23T14:33:14;4.40;;;1.40;;
14923;SDS011;7554;43.600;1.480;2022-09-23T14:35:47;7.20;;;1.57;;
14923;SDS011;7554;43.600;1.480;2022-09-23T14:38:24;3.70;;;1.27;;
14923;SDS011;7554;43.600;1.480;2022-09-23T14:41:15;5.57;;;1.50;;
14923;SDS011;7554;43.600;1.480;2022-09-23T14:43:50;6.80;;;1.70;;
14923;SDS011;7554;43.600;1.480;2022-09-23T14:46:21;3.87;;;1.30;;
14923;SDS011;7554;43.600;1.480;2022-09-23T14:48:54;5.60;;;1.40;;
14923;SDS011;7554;43.600;1.480;2022-09-23T14:51:31;5.63;;;1.50;;
14923;SDS011;7554;43.600;1.480;2022-09-23T14:56:58;9.10;;;1.70;;
14923;SDS011;7554;43.600;1.480;2022-09-23T14:59:32;5.97;;;1.50;;
14923;SDS011;7554;43.600;1.480;2022-09-23T15:02:01;6.50;;;1.50;;
14923;SDS011;7554;43.600;1.480;2022-09-23T15:04:43;5.50;;;1.70;;
14923;SDS011;7554;43.600;1.480;2022-09-23T15:07:14;5.97;;;1.57;;
14923;SDS011;7554;43.600;1.480;2022-09-23T15:09:44;7.97;;;1.80;;
14923;SDS011;7554;43.600;1.480;2022-09-23T15:12:12;3.77;;;1.40;;
14923;SDS011;7554;43.600;1.480;2022-09-23T15:14:43;4.37;;;1.60;;
14923;SDS011;7554;43.600;1.480;2022-09-23T15:17:19;3.07;;;1.77;;
14923;SDS011;7554;43.600;1.480;2022-09-23T15:19:57;7.57;;;1.40;;
14923;SDS011;7554;43.600;1.480;2022-09-23T15:22:27;3.93;;;1.43;;
14923;SDS011;7554;43.600;1.480;2022-09-23T15:25:07;5.70;;;1.63;;
14923;SDS011;7554;43.600;1.480;2022-09-23T15:27:40;5.13;;;1.30;;
14923;SDS011;7554;43.600;1.480;2022-09-23T15:30:13;7.43;;;1.40;;
14923;SDS011;7554;43.600;1.480;2022-09-23T15:32:42;6.13;;;1.70;;
14923;SDS011;7554;43.600;1.480;2022-09-23T15:35:13;4.07;;;1.40;;
14923;SDS011;7554;43.600;1.480;2022-09-23T15:37:43;5.63;;;1.67;;
14923;SDS011;7554;43.600;1.480;2022-09-23T15:40:18;4.30;;;1.20;;
14923;SDS011;7554;43.600;1.480;2022-09-23T15:42:47;3.77;;;1.10;;
14923;SDS011;7554;43.600;1.480;2022-09-23T15:45:18;3.77;;;1.43;;
14923;SDS011;7554;43.600;1.480;2022-09-23T15:47:47;6.93;;;1.30;;
14923;SDS011;7554;43.600;1.480;2022-09-23T15:50:16;5.17;;;1.43;;
14923;SDS011;7554;43.600;1.480;2022-09-23T15:52:44;4.03;;;1.60;;
14923;SDS011;7554;43.600;1.480;2022-09-23T15:55:16;4.50;;;1.33;;
14923;SDS011;7554;43.600;1.480;2022-09-23T15:57:46;3.43;;;1.30;;